Time;durP1;ratioP1;P1;durP2;ratioP2;P2;SDS_P1;SDS_P2;PMS_P1;PMS_P2;Temp;Humidity;BMP_temperature;BMP_pressure;BME280_temperature;BME280_humidity;BME280_pressure;Samples;Min_cycle;Max_cycle;Signal;HPM_P1;HPM_P2
2023/04/14 00:01:32;;;;;;;7.13;5.10;;;;;;;5.32;81.94;100187.50;5004559;28;20242;-69
2023/04/14 00:03:58;;;;;;;10.43;6.03;;;;;;;5.31;82.15;100193.69;5003869;28;20617;-68
2023/04/14 00:06:26;;;;;;;6.37;5.73;;;;;;;5.31;82.20;100198.13;5003583;28;20735;-67
2023/04/14 00:08:52;;;;;;;7.57;5.30;;;;;;;5.30;82.79;100199.06;5002654;28;20205;-68
2023/04/14 00:11:19;;;;;;;8.60;5.67;;;;;;;5.30;82.58;100204.34;5008039;28;20206;-69
2023/04/14 00:13:47;;;;;;;10.30;5.80;;;;;;;5.29;82.48;100199.97;5007499;28;20237;-69
2023/04/14 00:16:13;;;;;;;7.47;5.70;;;;;;;5.28;82.98;100206.19;5007509;28;20211;-70
2023/04/14 00:18:40;;;;;;;6.90;5.80;;;;;;;5.27;83.16;100204.47;5004160;28;20234;-68
2023/04/14 00:21:06;;;;;;;4.73;4.20;;;;;;;5.24;82.22;100205.47;5007448;28;20232;-68
2023/04/14 00:23:33;;;;;;;4.20;3.63;;;;;;;5.14;81.36;100206.88;5006985;28;20438;-68
2023/04/14 00:26:00;;;;;;;6.40;4.40;;;;;;;5.04;81.53;100206.44;5008706;28;20211;-68
2023/04/14 00:28:26;;;;;;;5.27;4.50;;;;;;;4.98;81.54;100204.09;5004994;28;20589;-69
2023/04/14 00:30:54;;;;;;;5.37;4.17;;;;;;;4.96;82.41;100207.75;5004744;28;20221;-68
2023/04/14 00:33:20;;;;;;;7.07;4.90;;;;;;;4.92;82.51;100209.66;5007816;28;20805;-69
2023/04/14 00:35:47;;;;;;;6.60;4.87;;;;;;;4.92;82.97;100206.16;5008800;28;20214;-70
2023/04/14 00:38:13;;;;;;;7.73;4.80;;;;;;;4.93;83.29;100210.50;5004319;28;20234;-71
2023/04/14 00:40:40;;;;;;;6.13;4.80;;;;;;;4.94;83.38;100212.22;5009559;28;20206;-68
2023/04/14 00:43:06;;;;;;;6.50;4.50;;;;;;;4.94;83.68;100209.59;5007127;28;20227;-68
2023/04/14 00:45:41;;;;;;;6.27;4.13;;;;;;;4.95;83.27;100203.38;5008612;28;20229;-69
2023/04/14 00:48:09;;;;;;;4.97;4.30;;;;;;;4.94;83.56;100207.81;5007619;28;20198;-68
2023/04/14 00:50:36;;;;;;;6.43;4.07;;;;;;;4.91;83.62;100202.66;5007221;28;20218;-69
2023/04/14 00:53:02;;;;;;;5.93;4.00;;;;;;;4.87;83.56;100209.88;5005125;28;20226;-69
2023/04/14 00:55:30;;;;;;;5.33;4.57;;;;;;;4.84;83.81;100211.78;5006052;28;20212;-69
2023/04/14 00:57:57;;;;;;;5.57;4.40;;;;;;;4.81;83.55;100206.69;5007596;28;20227;-68
2023/04/14 01:00:23;;;;;;;6.27;4.03;;;;;;;4.76;83.54;100211.31;5006854;28;20230;-68
2023/04/14 01:02:50;;;;;;;4.80;4.20;;;;;;;4.71;82.82;100216.78;5006214;28;20312;-69
2023/04/14 01:05:17;;;;;;;6.43;4.57;;;;;;;4.62;83.45;100211.94;5006223;28;20210;-69
2023/04/14 01:07:47;;;;;;;8.70;4.30;;;;;;;4.58;83.53;100212.16;5005864;28;20241;-70
2023/04/14 01:10:14;;;;;;;6.57;4.60;;;;;;;4.54;83.80;100211.44;5006101;28;20207;-71
2023/04/14 01:13:05;;;;;;;5.83;4.80;;;;;;;4.51;84.08;100208.94;5006867;28;20235;-68
2023/04/14 01:15:38;;;;;;;6.23;5.37;;;;;;;4.49;84.45;100210.78;5007386;28;20214;-68
2023/04/14 01:18:10;;;;;;;8.00;5.10;;;;;;;4.46;84.19;100209.16;5004032;28;20235;-69
2023/04/14 01:20:41;;;;;;;5.87;4.60;;;;;;;4.47;85.02;100207.38;5006055;28;20206;-67
2023/04/14 01:23:10;;;;;;;6.20;5.57;;;;;;;4.45;85.13;100202.16;5004135;28;20263;-69
2023/04/14 01:26:16;;;;;;;6.20;5.23;;;;;;;4.46;85.37;100205.66;5006287;28;20199;-68
2023/04/14 01:29:00;;;;;;;6.73;4.80;;;;;;;4.44;85.29;100203.09;5006821;28;20202;-68
2023/04/14 01:31:30;;;;;;;6.07;4.83;;;;;;;4.44;85.17;100210.16;5006147;28;20226;-68
2023/04/14 01:34:03;;;;;;;9.20;4.60;;;;;;;4.42;85.76;100215.50;5006709;28;20235;-68
2023/04/14 01:36:37;;;;;;;7.57;5.13;;;;;;;4.41;85.41;100223.47;5005896;28;20203;-68
2023/04/14 01:39:08;;;;;;;6.03;4.43;;;;;;;4.35;85.37;100216.69;5006947;28;20249;-69
2023/04/14 01:41:37;;;;;;;5.77;4.60;;;;;;;4.29;85.67;100218.75;5007217;28;20210;-68
2023/04/14 01:44:06;;;;;;;6.13;4.30;;;;;;;4.24;85.09;100220.72;5007392;28;20230;-68
2023/04/14 01:46:35;;;;;;;5.87;5.23;;;;;;;4.16;84.86;100215.78;5005969;28;20208;-69
2023/04/14 01:49:02;;;;;;;5.23;3.73;;;;;;;4.08;85.12;100220.53;5003211;28;20264;-69
2023/04/14 01:51:30;;;;;;;4.60;3.87;;;;;;;3.96;83.54;100219.28;5006654;28;20208;-69
2023/04/14 01:53:59;;;;;;;5.90;3.57;;;;;;;3.82;83.98;100217.25;5006478;28;20222;-69
2023/04/14 01:56:27;;;;;;;5.37;4.40;;;;;;;3.72;84.22;100223.84;5004949;28;20215;-69
2023/04/14 01:58:56;;;;;;;4.67;3.83;;;;;;;3.66;85.16;100225.84;5006317;28;20241;-69
2023/04/14 02:01:25;;;;;;;5.43;4.37;;;;;;;3.64;85.79;100225.06;5006727;28;20214;-71
2023/04/14 02:03:53;;;;;;;7.13;4.43;;;;;;;3.62;86.17;100233.00;5007117;28;20235;-69
2023/04/14 02:06:21;;;;;;;5.63;4.83;;;;;;;3.62;85.91;100234.78;5005125;28;20207;-69
2023/04/14 02:08:48;;;;;;;6.03;4.60;;;;;;;3.63;86.61;100237.38;4998777;28;20668;-69
2023/04/14 02:11:15;;;;;;;7.00;5.27;;;;;;;3.62;86.31;100227.75;5003002;28;20210;-66
2023/04/14 02:13:43;;;;;;;6.93;4.77;;;;;;;3.65;87.10;100237.31;5004700;28;20869;-68
2023/04/14 02:16:11;;;;;;;7.97;5.60;;;;;;;3.67;87.08;100235.47;5004905;28;20222;-70
2023/04/14 02:18:40;;;;;;;5.67;4.63;;;;;;;3.69;86.85;100241.53;5000770;28;20230;-68
2023/04/14 02:21:08;;;;;;;3.90;3.30;;;;;;;3.66;86.58;100239.03;5001166;28;20207;-68
2023/04/14 02:23:35;;;;;;;3.80;3.07;;;;;;;3.58;86.90;100236.72;5006302;28;20243;-68
2023/04/14 02:26:07;;;;;;;4.00;3.20;;;;;;;3.52;87.02;100236.09;5006755;28;20221;-68
2023/04/14 02:28:41;;;;;;;4.40;3.10;;;;;;;3.47;86.44;100236.28;5005440;28;20571;-68
2023/04/14 02:31:12;;;;;;;3.47;2.93;;;;;;;3.42;86.89;100233.84;5004834;28;20257;-68
2023/04/14 02:33:40;;;;;;;5.63;3.90;;;;;;;3.40;87.45;100232.22;5006375;28;20734;-68
2023/04/14 02:36:16;;;;;;;10.83;3.43;;;;;;;3.38;86.95;100231.41;5003903;28;20210;-70
2023/04/14 02:38:47;;;;;;;4.43;3.50;;;;;;;3.38;87.76;100236.69;4999918;28;20226;-69
2023/04/14 02:41:20;;;;;;;5.20;3.73;;;;;;;3.36;87.11;100239.38;5007238;28;20691;-69
2023/04/14 02:43:52;;;;;;;4.87;3.70;;;;;;;3.31;87.50;100228.16;5007239;28;20253;-68
2023/04/14 02:46:21;;;;;;;4.90;3.80;;;;;;;3.29;87.41;100227.34;5003741;28;20230;-69
2023/04/14 02:48:50;;;;;;;6.73;5.30;;;;;;;3.29;87.66;100230.00;5005770;28;20203;-69
2023/04/14 02:51:19;;;;;;;6.50;3.57;;;;;;;3.30;88.80;100226.44;5003658;28;20207;-68
2023/04/14 02:53:46;;;;;;;6.63;4.10;;;;;;;3.33;88.13;100236.00;5001918;28;20230;-68
2023/04/14 02:56:13;;;;;;;5.90;4.33;;;;;;;3.34;88.87;100237.72;5006117;28;20213;-69
2023/04/14 02:58:40;;;;;;;5.43;3.97;;;;;;;3.31;88.46;100233.41;4999570;28;20223;-71
2023/04/14 03:01:07;;;;;;;5.07;3.90;;;;;;;3.28;88.82;100235.31;5019839;23;20758;-71
2023/04/14 03:03:36;;;;;;;6.23;3.97;;;;;;;3.22;87.71;100233.81;4986180;28;20216;-71
2023/04/14 03:06:04;;;;;;;3.77;3.23;;;;;;;3.13;87.39;100235.00;4987132;28;20676;-71
2023/04/14 03:08:33;;;;;;;5.97;3.70;;;;;;;3.05;87.50;100223.06;4981848;28;20486;-71
2023/04/14 03:11:00;;;;;;;5.47;3.60;;;;;;;3.00;88.47;100225.03;4986599;28;20231;-71
2023/04/14 03:13:30;;;;;;;5.33;3.77;;;;;;;2.97;88.46;100230.41;4983494;28;20634;-71
2023/04/14 03:15:58;;;;;;;5.20;3.40;;;;;;;2.97;88.76;100233.03;4987580;28;20208;-71
2023/04/14 03:18:26;;;;;;;5.60;3.70;;;;;;;2.95;89.11;100233.09;4985562;28;20227;-71
2023/04/14 03:20:54;;;;;;;4.97;3.83;;;;;;;2.95;89.32;100230.47;4987144;28;20235;-71
2023/04/14 03:23:23;;;;;;;6.37;3.70;;;;;;;2.95;89.05;100226.97;4985992;28;20206;-71
2023/04/14 03:25:53;;;;;;;4.50;3.87;;;;;;;2.96;89.14;100233.97;4986865;28;20223;-71
2023/04/14 03:28:23;;;;;;;4.53;3.43;;;;;;;2.94;89.79;100236.66;4985041;28;20207;-71
2023/04/14 03:30:53;;;;;;;7.07;4.57;;;;;;;2.94;89.51;100244.53;4988085;28;20240;-72
2023/04/14 03:33:24;;;;;;;5.10;3.67;;;;;;;2.92;89.22;100249.00;4986315;28;20208;-71
2023/04/14 03:35:53;;;;;;;6.10;3.43;;;;;;;2.89;89.37;100257.00;4987378;28;20239;-71
2023/04/14 03:38:20;;;;;;;6.57;4.30;;;;;;;2.82;89.19;100257.31;4984747;28;20731;-71
2023/04/14 03:40:47;;;;;;;5.70;4.10;;;;;;;2.77;89.19;100241.69;4986962;28;20608;-71
2023/04/14 03:43:18;;;;;;;4.23;3.83;;;;;;;2.75;89.64;100244.38;4985902;28;20684;-73
2023/04/14 03:45:46;;;;;;;5.83;4.27;;;;;;;2.74;90.33;100237.41;4990364;28;20200;-71
2023/04/14 03:48:15;;;;;;;5.93;4.30;;;;;;;2.76;90.72;100238.22;4989342;28;20206;-71
2023/04/14 03:50:45;;;;;;;6.57;4.30;;;;;;;2.77;90.96;100241.69;4988679;28;20306;-71
2023/04/14 03:53:13;;;;;;;7.07;3.67;;;;;;;2.79;91.04;100245.13;4989483;28;20219;-71
2023/04/14 03:55:42;;;;;;;4.73;3.53;;;;;;;2.76;90.35;100240.84;4987985;28;20759;-71
2023/04/14 03:58:11;;;;;;;4.70;3.83;;;;;;;2.69;90.36;100241.97;4985265;28;20712;-71
2023/04/14 04:00:40;;;;;;;7.17;3.53;;;;;;;2.64;90.13;100245.72;4989711;28;20204;-72
2023/04/14 04:03:07;;;;;;;5.07;3.70;;;;;;;2.59;91.23;100242.38;4988184;28;20207;-71
2023/04/14 04:05:34;;;;;;;5.00;3.87;;;;;;;2.58;90.73;100253.81;4990153;28;20666;-70
2023/04/14 04:08:02;;;;;;;5.43;3.90;;;;;;;2.54;91.13;100258.31;4985783;28;20311;-71
2023/04/14 04:10:32;;;;;;;7.20;3.43;;;;;;;2.54;91.85;100260.94;4987131;28;20290;-71
2023/04/14 04:13:00;;;;;;;5.47;4.17;;;;;;;2.53;91.49;100261.00;4987039;28;20223;-70
2023/04/14 04:15:28;;;;;;;4.47;3.37;;;;;;;2.52;91.24;100270.66;4987894;28;20215;-71
2023/04/14 04:17:57;;;;;;;6.77;4.10;;;;;;;2.51;92.16;100268.94;4988248;28;20211;-71
2023/04/14 04:20:26;;;;;;;4.47;4.07;;;;;;;2.51;92.31;100276.00;4987755;28;20273;-70
2023/04/14 04:22:55;;;;;;;4.70;3.67;;;;;;;2.52;91.92;100265.41;4981830;28;20212;-71
2023/04/14 04:25:21;;;;;;;7.07;3.97;;;;;;;2.52;92.37;100272.41;4989386;28;20708;-71
2023/04/14 04:27:49;;;;;;;5.03;3.87;;;;;;;2.53;92.11;100274.13;4986955;28;20230;-71
2023/04/14 04:30:18;;;;;;;7.63;4.30;;;;;;;2.52;92.16;100256.66;4987981;28;20236;-71
2023/04/14 04:32:44;;;;;;;7.60;4.53;;;;;;;2.52;92.34;100262.78;4987971;28;20578;-71
2023/04/14 04:35:14;;;;;;;6.37;4.30;;;;;;;2.53;92.44;100266.25;4985037;28;20204;-74
2023/04/14 04:37:42;;;;;;;7.60;4.80;;;;;;;2.53;93.11;100268.88;4987595;28;20208;-71
2023/04/14 04:40:10;;;;;;;9.63;4.27;;;;;;;2.53;92.86;100256.59;4988543;28;20218;-70
2023/04/14 04:42:40;;;;;;;6.30;4.60;;;;;;;2.54;93.47;100257.47;4988356;28;20230;-71
2023/04/14 04:45:08;;;;;;;6.00;4.70;;;;;;;2.54;92.84;100260.94;4985534;28;20207;-70
2023/04/14 04:47:34;;;;;;;6.63;4.53;;;;;;;2.55;94.05;100259.19;4987553;28;20212;-71
2023/04/14 04:50:01;;;;;;;6.30;4.70;;;;;;;2.54;93.22;100260.09;4989139;28;20263;-71
2023/04/14 04:52:28;;;;;;;4.97;3.63;;;;;;;2.52;93.44;100270.66;4987274;28;20688;-71
2023/04/14 04:54:55;;;;;;;6.97;3.80;;;;;;;2.46;93.41;100277.94;4986951;28;20215;-72
2023/04/14 04:57:21;;;;;;;5.30;3.67;;;;;;;2.39;92.91;100286.03;4983528;28;20215;-72
2023/04/14 04:59:48;;;;;;;4.60;3.63;;;;;;;2.32;92.36;100281.06;4987899;28;20210;-69
2023/04/14 05:02:15;;;;;;;6.43;4.10;;;;;;;2.27;92.42;100280.34;4988176;28;20235;-71
2023/04/14 05:04:42;;;;;;;5.93;3.87;;;;;;;2.24;92.77;100280.44;4985891;28;20210;-71
2023/04/14 05:07:08;;;;;;;6.23;4.20;;;;;;;2.22;92.97;100277.00;4986702;28;20203;-71
2023/04/14 05:09:36;;;;;;;7.67;4.90;;;;;;;2.23;92.51;100284.00;4987549;28;20234;-72
2023/04/14 05:12:02;;;;;;;5.63;4.03;;;;;;;2.22;92.61;100285.75;4988474;28;20232;-71
2023/04/14 05:14:29;;;;;;;7.00;4.40;;;;;;;2.23;93.07;100287.47;4987936;28;20735;-72
2023/04/14 05:16:55;;;;;;;7.13;4.77;;;;;;;2.22;92.67;100285.75;4988182;28;20218;-71
2023/04/14 05:19:22;;;;;;;5.67;4.47;;;;;;;2.24;93.44;100293.59;4986883;28;20207;-71
2023/04/14 05:21:48;;;;;;;6.90;4.43;;;;;;;2.25;92.57;100290.06;4989629;28;20236;-72
2023/04/14 05:24:15;;;;;;;4.30;3.90;;;;;;;2.26;93.29;100290.00;4983373;28;20601;-70
2023/04/14 05:26:43;;;;;;;5.53;4.30;;;;;;;2.24;93.02;100293.59;4990403;28;20207;-71
2023/04/14 05:29:09;;;;;;;6.03;4.43;;;;;;;2.23;93.19;100297.13;4980809;28;20242;-71
2023/04/14 05:31:35;;;;;;;8.57;4.57;;;;;;;2.22;92.95;100298.03;4989586;28;20335;-71
2023/04/14 05:34:02;;;;;;;5.30;4.23;;;;;;;2.21;92.88;100298.94;4983703;28;20211;-72
2023/04/14 05:36:28;;;;;;;6.17;4.20;;;;;;;2.19;92.82;100298.13;4989235;28;21226;-71
2023/04/14 05:38:55;;;;;;;6.87;5.03;;;;;;;2.19;93.07;100301.63;4982147;28;20224;-71
2023/04/14 05:41:22;;;;;;;6.33;4.80;;;;;;;2.22;93.64;100306.78;4988653;28;20224;-71
2023/04/14 05:43:50;;;;;;;6.43;4.67;;;;;;;2.24;93.45;100304.97;4983189;28;20208;-73
2023/04/14 05:46:16;;;;;;;7.77;4.50;;;;;;;2.26;93.19;100310.16;4990224;28;20715;-71
2023/04/14 05:48:43;;;;;;;6.93;4.60;;;;;;;2.29;93.79;100310.06;4982483;28;20214;-72
2023/04/14 05:51:09;;;;;;;6.83;4.83;;;;;;;2.32;93.77;100313.44;4990201;28;20232;-72
2023/04/14 05:53:35;;;;;;;6.80;4.77;;;;;;;2.38;93.75;100296.59;4983842;28;20273;-71
2023/04/14 05:56:02;;;;;;;8.50;4.63;;;;;;;2.45;94.35;100305.97;4988891;28;20208;-71
2023/04/14 05:58:29;;;;;;;8.13;5.10;;;;;;;2.52;94.74;100298.72;4983686;28;20203;-71
2023/04/14 06:00:56;;;;;;;8.13;5.40;;;;;;;2.59;94.68;100294.97;4987174;28;20242;-72
2023/04/14 06:03:23;;;;;;;7.23;5.30;;;;;;;2.69;95.20;100289.28;4985276;28;20208;-72
2023/04/14 06:05:51;;;;;;;6.80;4.87;;;;;;;2.77;95.08;100295.16;4982048;28;20933;-71
2023/04/14 06:08:18;;;;;;;6.87;5.50;;;;;;;2.84;94.68;100297.56;4983899;28;20218;-71
2023/04/14 06:10:45;;;;;;;5.93;5.00;;;;;;;2.90;95.53;100282.38;4985183;28;20235;-71
2023/04/14 06:13:11;;;;;;;6.53;5.13;;;;;;;3.01;96.39;100282.84;4983387;28;20201;-71
2023/04/14 06:15:38;;;;;;;6.93;4.90;;;;;;;3.13;95.94;100292.03;4987406;28;20700;-71
2023/04/14 06:18:05;;;;;;;7.57;5.20;;;;;;;3.25;96.64;100295.97;4983609;28;20215;-70
2023/04/14 06:20:32;;;;;;;5.63;5.00;;;;;;;3.38;97.11;100295.44;4983969;28;20230;-73
2023/04/14 06:22:59;;;;;;;7.97;4.87;;;;;;;3.49;97.47;100293.22;4983356;28;20208;-71
2023/04/14 06:25:26;;;;;;;9.63;5.80;;;;;;;3.64;96.84;100293.53;4985822;28;20204;-73
2023/04/14 06:27:52;;;;;;;7.17;5.40;;;;;;;3.76;97.80;100293.88;4984152;28;20623;-71
2023/04/14 06:30:19;;;;;;;8.63;6.03;;;;;;;3.91;97.53;100297.69;4987027;28;20746;-71
2023/04/14 06:32:47;;;;;;;9.43;5.60;;;;;;;4.06;97.93;100297.03;4986331;28;20261;-72
2023/04/14 06:35:15;;;;;;;8.10;5.90;;;;;;;4.20;98.85;100288.53;4986063;28;20226;-73
2023/04/14 06:37:41;;;;;;;8.30;6.37;;;;;;;4.37;99.11;100293.06;4983257;28;20584;-71
2023/04/14 06:40:10;;;;;;;10.30;6.30;;;;;;;4.50;98.93;100288.97;4983961;28;20251;-71
2023/04/14 06:42:36;;;;;;;7.43;6.00;;;;;;;4.64;99.31;100286.59;4987010;28;20615;-71
2023/04/14 06:45:03;;;;;;;8.80;6.17;;;;;;;4.80;99.27;100290.25;4986059;28;20695;-71
2023/04/14 06:47:29;;;;;;;7.50;6.67;;;;;;;4.93;99.06;100284.41;4986366;28;20207;-72
2023/04/14 06:49:57;;;;;;;8.13;6.47;;;;;;;5.08;99.83;100284.53;4984339;28;20231;-71
2023/04/14 06:52:25;;;;;;;8.93;6.37;;;;;;;5.26;100.00;100285.47;4985334;28;20223;-73
2023/04/14 06:54:51;;;;;;;9.63;6.93;;;;;;;5.41;100.00;100276.81;4984118;28;20211;-72
2023/04/14 06:57:18;;;;;;;11.20;7.00;;;;;;;5.59;100.00;100275.91;4985591;28;20204;-71
2023/04/14 06:59:45;;;;;;;9.90;7.77;;;;;;;5.75;100.00;100276.03;4985567;28;20230;-71
2023/04/14 07:02:11;;;;;;;9.47;7.47;;;;;;;5.90;100.00;100275.31;4985096;28;20242;-71
2023/04/14 07:04:38;;;;;;;11.90;7.83;;;;;;;6.07;100.00;100277.09;4979471;28;20203;-72
2023/04/14 07:07:04;;;;;;;9.67;7.73;;;;;;;6.23;100.00;100275.38;4982534;28;20207;-72
2023/04/14 07:09:32;;;;;;;10.83;7.73;;;;;;;6.39;99.79;100279.88;4984934;28;20239;-72
2023/04/14 07:12:00;;;;;;;13.80;9.67;;;;;;;6.51;98.97;100277.44;4988891;28;20258;-74
2023/04/14 07:14:26;;;;;;;8.37;7.23;;;;;;;6.63;98.62;100271.50;4982240;28;20234;-74
2023/04/14 07:16:53;;;;;;;10.50;6.40;;;;;;;6.77;98.13;100269.91;4984812;28;20222;-72
2023/04/14 07:19:20;;;;;;;10.03;6.80;;;;;;;6.91;97.61;100268.25;4987592;28;20203;-73
2023/04/14 07:21:46;;;;;;;9.37;6.70;;;;;;;7.06;96.24;100273.63;4992700;28;20215;-71
2023/04/14 07:24:13;;;;;;;10.23;7.23;;;;;;;7.17;96.18;100276.53;4985927;28;20215;-72
2023/04/14 07:26:43;;;;;;;9.57;6.90;;;;;;;7.31;95.25;100274.00;4989008;28;20203;-73
2023/04/14 07:29:09;;;;;;;9.67;6.23;;;;;;;7.42;94.04;100270.72;4984544;28;20207;-72
2023/04/14 07:31:36;;;;;;;8.87;6.00;;;;;;;7.50;93.65;100268.50;4989513;28;20250;-72
2023/04/14 07:34:03;;;;;;;7.33;6.03;;;;;;;7.59;92.55;100274.13;4986208;28;20284;-72
2023/04/14 07:36:30;;;;;;;9.07;6.27;;;;;;;7.68;91.44;100275.41;4990332;28;20589;-72
2023/04/14 07:38:57;;;;;;;6.83;5.83;;;;;;;7.76;90.68;100275.81;4986996;28;20207;-72
2023/04/14 07:41:24;;;;;;;6.70;6.00;;;;;;;7.85;90.25;100285.06;4990783;28;20234;-72
2023/04/14 07:43:54;;;;;;;9.90;5.83;;;;;;;7.93;89.25;100282.78;4987493;28;20204;-72
2023/04/14 07:46:21;;;;;;;6.30;5.60;;;;;;;8.02;88.39;100280.47;4986881;28;20692;-72
2023/04/14 07:48:47;;;;;;;7.20;6.20;;;;;;;8.12;88.34;100285.22;4988606;28;20688;-73
2023/04/14 07:51:14;;;;;;;9.53;6.27;;;;;;;8.18;87.20;100283.06;4990001;28;20319;-73
2023/04/14 07:53:42;;;;;;;17.57;11.30;;;;;;;8.27;87.47;100289.63;4988650;28;20616;-72
2023/04/14 07:56:09;;;;;;;6.77;5.87;;;;;;;8.34;86.97;100288.34;4988575;28;20207;-71
2023/04/14 07:58:35;;;;;;;8.00;5.53;;;;;;;8.45;86.07;100290.34;4985344;28;20199;-72
2023/04/14 08:01:03;;;;;;;7.90;6.00;;;;;;;8.53;85.66;100286.28;4988533;28;20235;-73
2023/04/14 08:03:30;;;;;;;7.33;5.27;;;;;;;8.65;85.52;100287.34;4986659;28;20769;-73
2023/04/14 08:05:57;;;;;;;6.47;5.20;;;;;;;8.75;84.97;100283.19;4990230;28;20207;-72
2023/04/14 08:08:23;;;;;;;7.70;5.23;;;;;;;8.82;84.14;100288.97;4986175;28;20679;-73
2023/04/14 08:10:50;;;;;;;6.60;4.97;;;;;;;8.90;83.59;100281.38;4987251;28;20235;-72
2023/04/14 08:13:16;;;;;;;7.37;4.80;;;;;;;9.00;84.34;100283.34;4983105;28;20211;-72
2023/04/14 08:15:42;;;;;;;6.40;5.00;;;;;;;9.13;83.79;100286.13;4988674;28;20212;-73
2023/04/14 08:18:10;;;;;;;6.63;5.07;;;;;;;9.23;82.68;100284.56;4983196;28;20209;-72
2023/04/14 08:20:37;;;;;;;6.87;4.90;;;;;;;9.35;81.60;100282.91;4986366;28;20212;-74
2023/04/14 08:23:03;;;;;;;5.70;4.20;;;;;;;9.48;82.16;100278.53;4984317;28;20223;-72
2023/04/14 08:25:30;;;;;;;7.03;4.73;;;;;;;9.62;81.30;100281.16;4988635;28;20388;-72
2023/04/14 08:27:56;;;;;;;7.57;5.03;;;;;;;9.77;80.41;100281.09;4988456;28;20214;-72
2023/04/14 08:30:23;;;;;;;5.57;4.53;;;;;;;9.90;79.67;100279.31;4988438;28;20235;-72
2023/04/14 08:32:50;;;;;;;7.87;5.33;;;;;;;10.02;79.37;100281.19;4988415;28;20235;-72
2023/04/14 08:35:18;;;;;;;5.37;3.97;;;;;;;10.17;78.24;100282.81;4988719;28;20203;-73
2023/04/14 08:37:45;;;;;;;4.30;3.23;;;;;;;10.25;76.39;100280.50;4986848;28;20217;-72
2023/04/14 08:40:12;;;;;;;5.80;3.63;;;;;;;10.34;74.45;100281.69;4986058;28;20583;-73
2023/04/14 08:42:39;;;;;;;6.60;4.57;;;;;;;10.44;73.58;100278.28;4985890;28;20724;-72
2023/04/14 08:45:06;;;;;;;8.67;4.30;;;;;;;10.58;73.32;100287.13;4987798;28;20200;-72
2023/04/14 08:47:35;;;;;;;4.77;4.37;;;;;;;10.71;72.65;100277.38;4987796;28;20227;-72
2023/04/14 08:50:06;;;;;;;6.93;4.07;;;;;;;10.85;72.15;100279.91;4989559;28;20234;-73
2023/04/14 08:52:35;;;;;;;6.73;4.93;;;;;;;11.02;71.62;100281.38;4988751;28;20430;-72
2023/04/14 08:55:03;;;;;;;6.33;4.03;;;;;;;11.14;70.82;100286.69;4988837;28;20212;-72
2023/04/14 08:57:31;;;;;;;7.63;4.47;;;;;;;11.28;70.60;100282.19;4986013;28;20205;-72
2023/04/14 08:59:58;;;;;;;4.97;4.03;;;;;;;11.40;70.02;100286.63;4986644;28;20695;-72
2023/04/14 09:02:26;;;;;;;5.70;3.90;;;;;;;11.54;69.36;100286.47;4987702;28;20258;-73
2023/04/14 09:04:53;;;;;;;5.00;3.80;;;;;;;11.66;68.55;100292.72;4987989;28;20213;-71
2023/04/14 09:07:20;;;;;;;5.70;3.60;;;;;;;11.77;67.95;100291.00;4986365;28;20239;-72
2023/04/14 09:09:48;;;;;;;5.77;3.90;;;;;;;11.83;66.27;100290.53;4987484;28;20273;-72
2023/04/14 09:12:16;;;;;;;6.00;3.80;;;;;;;11.95;67.01;100288.78;4988237;28;20258;-72
2023/04/14 09:14:44;;;;;;;5.83;3.90;;;;;;;12.04;66.47;100282.75;4987749;28;20577;-72
2023/04/14 09:17:11;;;;;;;7.90;3.50;;;;;;;12.12;66.00;100280.38;4987756;28;20354;-72
2023/04/14 09:19:38;;;;;;;7.17;4.40;;;;;;;12.24;65.60;100283.06;4987180;28;20208;-73
2023/04/14 09:22:04;;;;;;;4.60;3.73;;;;;;;12.30;64.55;100278.13;4983577;28;20223;-73
2023/04/14 09:24:33;;;;;;;5.83;3.60;;;;;;;12.40;65.30;100263.06;4983590;28;20739;-73
2023/04/14 09:27:03;;;;;;;5.30;3.23;;;;;;;12.54;64.69;100258.50;4988487;28;20272;-72
2023/04/14 09:29:30;;;;;;;5.10;3.13;;;;;;;12.64;64.19;100256.81;4986595;28;20463;-72
2023/04/14 09:31:57;;;;;;;6.70;3.67;;;;;;;12.73;63.37;100242.72;4988208;28;20235;-72
2023/04/14 09:34:23;;;;;;;5.03;3.70;;;;;;;12.85;62.86;100252.47;4986308;28;20677;-73
2023/04/14 09:37:01;;;;;;;5.47;3.40;;;;;;;12.98;62.97;100247.84;4988478;28;20218;-71
2023/04/14 09:39:27;;;;;;;6.27;3.60;;;;;;;13.08;61.82;100246.09;4982728;28;20691;-72
2023/04/14 09:41:54;;;;;;;6.93;3.63;;;;;;;13.16;60.90;100248.22;4986772;28;20231;-73
2023/04/14 09:44:22;;;;;;;6.20;3.17;;;;;;;13.26;61.07;100245.63;4983863;28;20200;-72
2023/04/14 09:46:59;;;;;;;4.67;3.10;;;;;;;13.36;60.88;100239.44;4988745;28;20239;-73
2023/04/14 09:49:26;;;;;;;3.73;3.03;;;;;;;13.46;60.12;100247.53;4984432;28;20207;-73
2023/04/14 09:51:54;;;;;;;4.93;3.03;;;;;;;13.53;59.36;100243.41;4988099;28;20601;-72
2023/04/14 09:54:25;;;;;;;4.47;2.90;;;;;;;13.61;58.31;100245.47;4984819;28;20669;-73
2023/04/14 09:56:51;;;;;;;4.47;3.07;;;;;;;13.68;57.50;100247.50;4988798;28;20215;-71
2023/04/14 09:59:32;;;;;;;5.17;4.03;;;;;;;13.70;56.97;100237.50;4984749;28;20719;-72
2023/04/14 10:02:00;;;;;;;4.27;3.20;;;;;;;13.72;57.49;100234.72;4987964;28;20231;-72
2023/04/14 10:04:27;;;;;;;7.20;3.47;;;;;;;13.79;56.84;100241.25;4982559;28;20231;-72
2023/04/14 10:06:56;;;;;;;3.20;2.90;;;;;;;13.81;55.88;100247.31;4987535;28;20594;-73
2023/04/14 10:09:23;;;;;;;4.07;3.20;;;;;;;13.77;55.50;100236.03;4983405;28;20294;-72
2023/04/14 10:12:08;;;;;;;4.00;3.13;;;;;;;13.82;56.21;100236.47;4988223;28;20263;-72
2023/04/14 10:14:37;;;;;;;4.97;3.37;;;;;;;13.88;56.01;100237.81;4984942;28;20243;-73
2023/04/14 10:17:04;;;;;;;3.33;2.90;;;;;;;13.90;55.76;100236.69;4984697;28;20251;-72
2023/04/14 10:19:31;;;;;;;4.20;2.73;;;;;;;13.93;55.64;100230.25;4984884;28;20211;-72
2023/04/14 10:21:58;;;;;;;5.17;3.23;;;;;;;14.01;55.54;100224.22;4987416;28;20228;-71
2023/04/14 10:24:25;;;;;;;5.27;3.70;;;;;;;14.09;55.16;100227.13;4984575;28;20568;-72
2023/04/14 10:26:54;;;;;;;8.60;3.40;;;;;;;14.17;54.89;100221.94;4985726;28;20214;-75
2023/04/14 10:29:21;;;;;;;5.53;3.10;;;;;;;14.26;54.82;100223.88;4979430;28;20212;-74
2023/04/14 10:31:53;;;;;;;4.20;3.70;;;;;;;14.34;53.94;100213.31;4986026;28;20239;-73
2023/04/14 10:34:21;;;;;;;6.17;3.53;;;;;;;14.40;54.74;100220.00;4981558;28;20211;-72
2023/04/14 10:36:48;;;;;;;5.40;3.93;;;;;;;14.48;53.85;100214.88;4986726;28;20254;-74
2023/04/14 10:39:22;;;;;;;3.80;3.40;;;;;;;14.47;53.69;100211.34;4986365;28;20210;-72
2023/04/14 10:41:50;;;;;;;4.63;3.33;;;;;;;14.46;52.84;100209.63;4984950;28;20231;-72
2023/04/14 10:44:25;;;;;;;4.63;3.20;;;;;;;14.46;53.09;100195.41;4983006;28;20208;-72
2023/04/14 10:46:55;;;;;;;4.47;3.37;;;;;;;14.53;52.87;100202.75;4987979;28;20583;-71
2023/04/14 10:49:24;;;;;;;4.07;2.80;;;;;;;14.60;52.78;100200.41;4984897;28;20572;-72
2023/04/14 10:51:51;;;;;;;4.97;2.80;;;;;;;14.63;51.84;100201.97;4988213;28;20347;-72
2023/04/14 10:54:18;;;;;;;5.37;3.23;;;;;;;14.58;51.03;100197.00;4986938;28;20299;-72
2023/04/14 10:57:18;;;;;;;3.03;2.67;;;;;;;14.54;50.86;100196.41;4991415;28;20234;-72
2023/04/14 10:59:46;;;;;;;3.93;2.63;;;;;;;14.53;50.95;100193.84;4984295;28;20228;-72
2023/04/14 11:02:25;;;;;;;3.30;2.97;;;;;;;14.52;51.11;100186.81;4986359;28;20231;-73
2023/04/14 11:05:02;;;;;;;5.50;3.00;;;;;;;14.54;50.71;100184.84;4985976;28;20235;-72
2023/04/14 11:07:30;;;;;;;4.47;2.90;;;;;;;14.55;50.14;100175.81;4985609;28;20288;-73
2023/04/14 11:10:20;;;;;;;5.47;2.70;;;;;;;14.58;50.30;100184.44;4986022;28;20211;-72
2023/04/14 11:12:48;;;;;;;3.53;3.13;;;;;;;14.64;49.51;100184.91;4985552;28;20231;-72
2023/04/14 11:15:16;;;;;;;3.50;3.20;;;;;;;14.65;50.08;100183.91;4984871;28;20211;-74
2023/04/14 11:17:44;;;;;;;5.00;3.30;;;;;;;14.67;50.45;100181.97;4978248;28;20282;-75
2023/04/14 11:20:15;;;;;;;5.23;3.60;;;;;;;14.67;50.13;100180.13;4983074;28;20665;-72
2023/04/14 11:22:44;;;;;;;5.13;3.80;;;;;;;14.68;50.24;100178.31;4985027;28;20251;-73
2023/04/14 11:25:12;;;;;;;5.33;3.83;;;;;;;14.72;50.86;100179.69;4984488;28;20690;-73
2023/04/14 11:27:39;;;;;;;4.90;3.40;;;;;;;14.79;51.39;100186.22;4985265;28;20213;-73
2023/04/14 11:30:07;;;;;;;6.13;3.53;;;;;;;14.86;50.87;100176.69;4984496;28;20205;-72
2023/04/14 11:32:47;;;;;;;5.10;3.30;;;;;;;14.93;50.70;100184.03;4986181;28;20227;-74
2023/04/14 11:35:13;;;;;;;5.27;3.80;;;;;;;15.02;50.40;100170.78;4986559;28;20286;-72
2023/04/14 11:37:40;;;;;;;4.60;4.00;;;;;;;15.11;50.10;100178.84;4992084;28;20204;-72